Time;durP1;ratioP1;P1;durP2;ratioP2;P2;SDS_P1;SDS_P2;PMS_P1;PMS_P2;Temp;Humidity;BMP_temperature;BMP_pressure;BME280_temperature;BME280_humidity;BME280_pressure;Samples;Min_cycle;Max_cycle;Signal;HPM_P1;HPM_P2
2023/05/14 00:04:23;;;;;;;11.50;7.20;;;;;;;12.03;57.68;99513.73;221224;181;136891;-66
2023/05/14 00:09:29;;;;;;;12.90;7.40;;;;;;;12.03;57.86;99510.54;224000;181;145304;-65
2023/05/14 00:14:32;;;;;;;10.00;7.20;;;;;;;12.04;57.81;99514.37;223336;181;138469;-64
2023/05/14 00:19:35;;;;;;;11.40;7.50;;;;;;;12.02;57.76;99513.05;223933;181;137884;-64
2023/05/14 00:24:38;;;;;;;12.50;7.30;;;;;;;12.00;57.71;99510.14;223914;181;144993;-64
2023/05/14 00:29:41;;;;;;;15.30;7.10;;;;;;;11.99;57.71;99510.75;223914;181;139275;-67
2023/05/14 00:34:44;;;;;;;13.70;7.20;;;;;;;11.98;57.55;99514.88;223903;181;136985;-63
2023/05/14 00:39:48;;;;;;;12.20;6.90;;;;;;;11.97;57.64;99520.15;223961;181;145716;-64
2023/05/14 00:44:52;;;;;;;11.10;6.90;;;;;;;11.94;57.79;99526.16;223898;182;140658;-64
2023/05/14 00:49:55;;;;;;;12.40;7.20;;;;;;;11.89;57.79;99521.69;223948;181;136466;-63
2023/05/14 00:54:58;;;;;;;10.70;6.60;;;;;;;11.82;58.10;99520.14;223952;182;145360;-63
2023/05/14 01:00:02;;;;;;;11.70;7.00;;;;;;;11.80;58.24;99524.11;223925;181;139721;-63
2023/05/14 01:05:07;;;;;;;12.40;6.60;;;;;;;11.79;58.24;99527.06;223904;181;137248;-63
2023/05/14 01:10:20;;;;;;;10.80;6.40;;;;;;;11.76;58.33;99529.20;223923;181;145323;-64
2023/05/14 01:15:29;;;;;;;9.20;6.40;;;;;;;11.75;58.31;99528.89;223771;181;140113;-65
2023/05/14 01:20:32;;;;;;;10.10;6.30;;;;;;;11.73;58.30;99529.73;223978;182;137068;-72
2023/05/14 01:25:36;;;;;;;11.10;6.60;;;;;;;11.71;58.49;99529.29;223878;181;145239;-65
2023/05/14 01:30:41;;;;;;;11.10;6.10;;;;;;;11.69;58.59;99524.61;223874;181;138672;-69
2023/05/14 01:35:45;;;;;;;8.90;6.20;;;;;;;11.65;58.62;99519.52;223893;181;137786;-64
2023/05/14 01:40:49;;;;;;;9.00;6.10;;;;;;;11.60;58.75;99515.31;223972;182;145179;-66
2023/05/14 01:45:54;;;;;;;8.60;5.90;;;;;;;11.58;58.77;99517.58;223960;182;139011;-65
2023/05/14 01:50:57;;;;;;;9.00;6.00;;;;;;;11.52;59.11;99518.69;223938;182;136752;-64
2023/05/14 01:56:03;;;;;;;8.10;6.40;;;;;;;11.45;59.28;99518.03;223768;181;282688;-63
2023/05/14 02:01:06;;;;;;;8.30;6.10;;;;;;;11.38;59.33;99510.61;223947;181;139175;-67
2023/05/14 02:06:09;;;;;;;9.00;5.90;;;;;;;11.36;59.34;99513.23;223957;181;137534;-66
2023/05/14 02:11:12;;;;;;;9.20;6.70;;;;;;;11.33;59.41;99508.40;223901;181;145321;-67
2023/05/14 02:16:15;;;;;;;9.80;6.40;;;;;;;11.30;59.48;99503.27;223896;181;138161;-63
2023/05/14 02:21:18;;;;;;;10.60;6.50;;;;;;;11.26;59.48;99500.98;223944;181;136488;-62
2023/05/14 02:26:22;;;;;;;7.90;5.80;;;;;;;11.25;59.66;99500.02;223966;182;145892;-63
2023/05/14 02:31:25;;;;;;;12.30;6.70;;;;;;;11.20;59.73;99497.42;223915;181;138413;-63
2023/05/14 02:36:28;;;;;;;10.60;6.60;;;;;;;11.13;59.81;99495.86;223936;182;136622;-64
2023/05/14 02:41:31;;;;;;;7.70;6.10;;;;;;;11.07;59.98;99492.81;223954;181;145141;-64
2023/05/14 02:46:34;;;;;;;8.20;5.70;;;;;;;11.07;60.02;99481.27;223932;182;140766;-65
2023/05/14 02:51:38;;;;;;;8.00;6.20;;;;;;;11.03;60.15;99478.69;223951;182;136199;-64
2023/05/14 02:56:41;;;;;;;7.50;5.80;;;;;;;10.97;60.47;99480.63;223962;181;145255;-63
2023/05/14 03:01:45;;;;;;;8.50;6.00;;;;;;;10.89;60.68;99479.66;222444;181;138168;-65
2023/05/14 03:06:49;;;;;;;9.00;6.10;;;;;;;10.81;60.88;99476.94;221256;182;137171;-67
2023/05/14 03:11:53;;;;;;;9.10;5.40;;;;;;;10.78;61.13;99478.32;223674;181;145559;-66
2023/05/14 03:16:57;;;;;;;7.20;5.30;;;;;;;10.80;61.01;99477.34;224005;181;138385;-66
2023/05/14 03:22:00;;;;;;;10.70;5.40;;;;;;;10.79;61.13;99476.11;223942;181;137450;-67
2023/05/14 03:27:04;;;;;;;8.80;5.50;;;;;;;10.77;61.31;99462.39;223900;181;145838;-66
2023/05/14 03:32:07;;;;;;;9.90;6.20;;;;;;;10.80;61.38;99457.63;223902;182;138800;-67
2023/05/14 03:37:10;;;;;;;10.60;6.20;;;;;;;10.85;61.33;99452.54;223909;182;139394;-65
2023/05/14 03:42:13;;;;;;;7.40;5.50;;;;;;;10.88;61.34;99452.88;223942;182;144982;-66
2023/05/14 03:47:16;;;;;;;7.80;5.50;;;;;;;10.94;61.33;99455.08;223929;181;138071;-66
2023/05/14 03:52:19;;;;;;;8.70;5.40;;;;;;;11.00;61.17;99461.98;223914;182;138919;-66
2023/05/14 03:57:22;;;;;;;7.30;4.80;;;;;;;11.05;61.24;99467.58;223917;181;145307;-67
2023/05/14 04:02:25;;;;;;;9.30;5.50;;;;;;;11.07;61.41;99463.50;223931;181;138375;-67
2023/05/14 04:07:30;;;;;;;7.90;5.20;;;;;;;11.09;61.52;99463.63;223897;181;137027;-69
2023/05/14 04:12:33;;;;;;;7.70;5.40;;;;;;;11.16;61.58;99455.76;223845;181;145492;-65
2023/05/14 04:17:37;;;;;;;9.50;5.90;;;;;;;11.26;61.48;99461.00;223780;183;138673;-67
2023/05/14 04:22:40;;;;;;;7.30;5.30;;;;;;;11.37;61.42;99454.01;223881;181;136911;-65
2023/05/14 04:27:43;;;;;;;250.00;194.70;;;;;;;11.45;61.48;99450.16;223874;182;146531;-61
2023/05/14 04:32:46;;;;;;;24.30;16.00;;;;;;;11.57;61.51;99445.69;223851;181;138197;-62
2023/05/14 04:37:49;;;;;;;70.80;58.70;;;;;;;11.69;61.34;99443.95;223909;181;137805;-62
2023/05/14 04:42:52;;;;;;;32.40;22.60;;;;;;;11.79;61.27;99448.65;223893;181;145284;-60
2023/05/14 04:47:55;;;;;;;8.30;5.90;;;;;;;11.88;60.95;99455.04;223933;181;138907;-62
2023/05/14 04:52:58;;;;;;;6.70;5.20;;;;;;;11.97;60.58;99455.41;223892;181;139974;-62
2023/05/14 04:58:02;;;;;;;6.70;4.30;;;;;;;12.03;60.21;99455.91;223910;182;145707;-62
2023/05/14 05:03:05;;;;;;;6.60;4.80;;;;;;;12.05;60.21;99457.56;223935;182;138413;-62
2023/05/14 05:08:08;;;;;;;6.80;5.30;;;;;;;12.07;60.22;99451.02;223946;181;136957;-61
2023/05/14 05:13:11;;;;;;;9.60;6.00;;;;;;;12.11;60.10;99450.11;223949;182;145391;-62
2023/05/14 05:18:15;;;;;;;15.10;6.90;;;;;;;12.17;60.08;99445.64;223952;182;138422;-62
2023/05/14 05:23:18;;;;;;;10.70;7.00;;;;;;;12.25;60.01;99439.98;223890;181;137059;-62
2023/05/14 05:28:22;;;;;;;138.80;114.60;;;;;;;12.35;60.11;99436.32;223914;181;147703;-62
2023/05/14 05:33:25;;;;;;;20.40;13.80;;;;;;;12.55;60.00;99435.26;223800;182;138198;-62
2023/05/14 05:38:28;;;;;;;13.80;7.30;;;;;;;12.76;59.75;99430.84;223987;181;137493;-61
2023/05/14 05:43:32;;;;;;;12.10;7.00;;;;;;;12.92;59.17;99425.02;223936;181;146768;-61
2023/05/14 05:48:35;;;;;;;9.60;6.40;;;;;;;13.01;58.86;99417.29;223895;181;138968;-64
2023/05/14 05:53:38;;;;;;;11.90;6.40;;;;;;;13.08;58.49;99412.40;223914;181;140224;-62
2023/05/14 05:58:41;;;;;;;11.80;6.90;;;;;;;13.15;58.25;99413.69;223896;181;148576;-62
2023/05/14 06:03:44;;;;;;;11.00;6.50;;;;;;;13.24;58.38;99417.04;223826;181;140923;-62
2023/05/14 06:08:50;;;;;;;9.00;5.90;;;;;;;13.33;57.98;99418.59;223881;181;140048;-61
2023/05/14 06:13:53;;;;;;;11.40;6.90;;;;;;;13.42;58.01;99417.26;223907;181;147811;-62
2023/05/14 06:18:56;;;;;;;10.50;6.60;;;;;;;13.50;57.87;99417.99;223817;181;138954;-62
2023/05/14 06:24:02;;;;;;;12.00;6.00;;;;;;;13.59;57.60;99412.33;223908;182;137711;-62
2023/05/14 06:29:05;;;;;;;10.10;6.00;;;;;;;13.71;57.15;99408.86;223842;181;147869;-63
2023/05/14 06:34:08;;;;;;;9.20;6.00;;;;;;;13.83;57.26;99401.64;223844;181;139076;-65
2023/05/14 06:39:11;;;;;;;8.70;6.20;;;;;;;13.92;57.13;99401.52;223915;182;137358;-63
2023/05/14 06:44:15;;;;;;;8.60;6.00;;;;;;;14.01;56.80;99402.69;223896;182;147597;-63
2023/05/14 06:49:18;;;;;;;10.70;6.00;;;;;;;14.07;56.63;99389.94;223835;181;138761;-62
2023/05/14 06:54:21;;;;;;;10.50;6.00;;;;;;;14.16;56.51;99391.27;223895;181;138427;-65
2023/05/14 06:59:25;;;;;;;8.80;5.80;;;;;;;14.26;56.36;99386.61;223868;181;148403;-65
2023/05/14 07:04:28;;;;;;;11.40;5.50;;;;;;;14.41;56.09;99386.75;223715;181;138481;-62
2023/05/14 07:09:31;;;;;;;18.60;11.30;;;;;;;14.57;55.54;99386.73;223908;181;137404;-60
2023/05/14 07:14:34;;;;;;;8.20;5.30;;;;;;;14.70;55.76;99381.34;223953;179;146913;-65
2023/05/14 07:19:38;;;;;;;9.40;4.80;;;;;;;14.84;55.11;99387.79;223778;181;140055;-66
2023/05/14 07:24:41;;;;;;;6.80;4.10;;;;;;;14.94;54.68;99385.81;223962;180;137533;-65
2023/05/14 07:29:44;;;;;;;12.00;4.50;;;;;;;15.09;54.05;99385.54;223863;181;147513;-65
2023/05/14 07:34:47;;;;;;;7.90;4.20;;;;;;;15.17;53.60;99390.48;223873;181;138204;-61
2023/05/14 07:39:51;;;;;;;7.50;4.40;;;;;;;15.27;53.61;99400.80;223841;181;137690;-63
2023/05/14 07:44:54;;;;;;;7.60;4.80;;;;;;;15.42;52.94;99400.42;223832;181;147670;-62
2023/05/14 07:49:58;;;;;;;52.00;39.60;;;;;;;15.48;52.95;99391.54;223856;181;139233;-62
2023/05/14 07:55:02;;;;;;;28.80;21.40;;;;;;;15.60;52.61;99383.61;223919;181;137817;-64
2023/05/14 08:00:08;;;;;;;4.70;3.60;;;;;;;15.81;51.45;99380.27;223974;181;147601;-63
2023/05/14 08:05:14;;;;;;;5.30;3.90;;;;;;;15.90;51.26;99368.50;223828;182;138562;-63
2023/05/14 08:10:17;;;;;;;7.60;5.10;;;;;;;16.00;51.88;99357.30;223913;181;136852;-64
2023/05/14 08:15:20;;;;;;;6.80;4.00;;;;;;;16.08;51.71;99351.41;223871;181;147361;-64
2023/05/14 08:20:23;;;;;;;9.40;5.30;;;;;;;16.24;50.50;99348.53;223846;181;138080;-63
2023/05/14 08:25:27;;;;;;;4.40;2.60;;;;;;;16.36;50.40;99335.21;223893;182;232208;-65
2023/05/14 08:30:30;;;;;;;4.30;3.00;;;;;;;16.49;50.84;99334.14;223877;181;147150;-64
2023/05/14 08:35:33;;;;;;;3.90;2.90;;;;;;;16.62;50.53;99330.77;223798;181;139034;-63
2023/05/14 08:40:36;;;;;;;6.30;3.10;;;;;;;16.74;50.85;99317.25;223836;182;137003;-64
2023/05/14 08:45:40;;;;;;;4.30;2.60;;;;;;;16.90;51.00;99313.92;223869;181;146905;-64
2023/05/14 08:50:43;;;;;;;4.20;2.60;;;;;;;17.07;50.75;99315.60;223799;181;138753;-65
2023/05/14 08:55:48;;;;;;;3.30;2.40;;;;;;;17.18;50.75;99308.68;223911;182;139156;-68
2023/05/14 09:00:52;;;;;;;42.60;30.40;;;;;;;17.31;50.31;99311.61;223838;182;148695;-67
2023/05/14 09:05:56;;;;;;;4.50;2.90;;;;;;;17.66;50.65;99306.60;223867;181;138667;-64
2023/05/14 09:11:02;;;;;;;7.30;3.60;;;;;;;18.03;49.61;99297.61;223955;181;139033;-68
2023/05/14 09:16:05;;;;;;;8.80;3.80;;;;;;;18.28;48.62;99292.01;223898;181;147660;-64
2023/05/14 09:21:08;;;;;;;4.10;3.00;;;;;;;18.48;48.47;99288.14;223820;182;138860;-68
2023/05/14 09:26:16;;;;;;;3.80;2.40;;;;;;;18.72;47.18;99281.82;223956;181;137784;-66
2023/05/14 09:31:19;;;;;;;297.50;226.60;;;;;;;18.90;46.04;99273.35;223866;181;148187;-67
2023/05/14 09:36:26;;;;;;;27.10;21.70;;;;;;;19.15;47.11;99265.96;223944;181;138417;-63
2023/05/14 09:41:29;;;;;;;12.20;8.70;;;;;;;19.36;46.56;99257.88;223853;182;138097;-66
2023/05/14 09:46:32;;;;;;;8.00;3.80;;;;;;;19.54;45.95;99255.08;223877;181;147367;-65
2023/05/14 09:51:36;;;;;;;3.90;1.50;;;;;;;19.70;45.01;99251.61;223837;181;138581;-66
2023/05/14 09:56:39;;;;;;;2.50;1.60;;;;;;;19.83;44.82;99241.50;223886;181;136917;-60
2023/05/14 10:01:43;;;;;;;30.60;25.50;;;;;;;19.95;43.54;99232.81;222465;182;146830;-66
2023/05/14 10:06:50;;;;;;;2.90;2.60;;;;;;;20.13;44.45;99225.31;223862;181;138778;-64
2023/05/14 10:11:58;;;;;;;100.00;78.40;;;;;;;20.31;43.72;99220.93;223892;181;136660;-65
2023/05/14 10:17:03;;;;;;;5.40;3.00;;;;;;;20.42;42.77;99215.86;223882;182;147986;-64
2023/05/14 10:22:10;;;;;;;6.30;4.60;;;;;;;20.50;42.95;99213.46;223817;181;138424;-63
2023/05/14 10:27:14;;;;;;;2.90;2.00;;;;;;;20.58;43.09;99199.87;223895;182;137664;-63
2023/05/14 10:32:19;;;;;;;23.30;15.60;;;;;;;20.71;42.51;99189.56;223924;181;148697;-63
2023/05/14 10:37:25;;;;;;;3.40;2.10;;;;;;;20.85;42.45;99181.84;223827;181;139752;-62
2023/05/14 10:42:39;;;;;;;4.70;2.60;;;;;;;20.92;41.65;99168.52;223908;181;136926;-63
2023/05/14 10:47:45;;;;;;;4.00;1.50;;;;;;;20.94;41.57;99165.20;223884;181;147095;-61
2023/05/14 10:52:48;;;;;;;6.20;1.80;;;;;;;20.98;41.40;99156.27;221845;182;140605;-64
2023/05/14 10:57:51;;;;;;;7.80;1.60;;;;;;;21.09;40.56;99145.73;223872;181;136697;-62
2023/05/14 11:02:56;;;;;;;4.20;1.80;;;;;;;21.21;40.14;99140.20;223848;181;147374;-63
2023/05/14 11:08:02;;;;;;;3.00;1.50;;;;;;;21.37;39.99;99128.50;223960;181;140488;-63
2023/05/14 11:13:05;;;;;;;5.60;4.10;;;;;;;21.44;39.49;99124.30;223957;182;136464;-63
2023/05/14 11:18:09;;;;;;;4.30;1.80;;;;;;;21.52;40.50;99117.90;223859;181;148769;-64
2023/05/14 11:23:12;;;;;;;2.90;1.40;;;;;;;21.59;39.79;99110.58;223911;181;138072;-65
2023/05/14 11:28:15;;;;;;;2.40;1.90;;;;;;;21.72;40.32;99097.26;223490;182;136919;-64
2023/05/14 11:33:19;;;;;;;4.00;2.00;;;;;;;21.77;40.14;99092.23;221332;181;148862;-66
2023/05/14 11:38:23;;;;;;;6.30;1.80;;;;;;;21.66;40.03;99097.37;223018;181;138579;-65
2023/05/14 11:43:29;;;;;;;3.70;1.30;;;;;;;21.60;39.10;99095.29;223882;181;137851;-65
2023/05/14 11:48:32;;;;;;;2.20;1.30;;;;;;;21.54;39.11;99090.97;223907;181;148952;-64
2023/05/14 11:53:35;;;;;;;4.90;1.60;;;;;;;21.57;39.41;99081.20;223854;181;138677;-66
2023/05/14 11:58:39;;;;;;;1.80;1.50;;;;;;;21.53;38.96;99083.04;223897;181;137794;-65
2023/05/14 12:03:42;;;;;;;5.40;1.50;;;;;;;21.58;39.10;99078.24;223856;181;146819;-64
2023/05/14 12:08:47;;;;;;;2.80;1.30;;;;;;;21.58;39.05;99072.30;223832;181;138192;-64
2023/05/14 12:13:51;;;;;;;3.40;1.40;;;;;;;21.57;38.31;99062.92;223984;181;137079;-63
2023/05/14 12:18:58;;;;;;;3.90;1.20;;;;;;;21.47;38.43;99050.31;223930;177;146823;-64
2023/05/14 12:24:02;;;;;;;4.20;1.40;;;;;;;21.44;38.76;99048.11;223921;181;138841;-64
2023/05/14 12:29:05;;;;;;;2.80;1.40;;;;;;;21.58;38.08;99032.34;223980;181;139014;-65
2023/05/14 12:34:08;;;;;;;2.00;1.30;;;;;;;21.65;37.59;99024.16;223950;181;146973;-65
2023/05/14 12:39:11;;;;;;;7.70;1.70;;;;;;;21.70;37.37;99010.63;223870;182;138195;-64
2023/05/14 12:44:15;;;;;;;2.90;1.60;;;;;;;21.73;37.95;99005.92;223929;181;137919;-65
2023/05/14 12:49:18;;;;;;;2.20;1.20;;;;;;;21.79;36.88;99006.21;223839;181;147474;-65
2023/05/14 12:54:21;;;;;;;100.40;78.30;;;;;;;21.85;37.11;99006.82;223908;181;138397;-68
2023/05/14 12:59:24;;;;;;;5.10;3.20;;;;;;;21.95;36.96;98993.08;223909;181;137489;-63
2023/05/14 13:04:27;;;;;;;5.70;1.30;;;;;;;21.99;36.49;98984.66;223851;181;148317;-64
2023/05/14 13:09:31;;;;;;;3.60;1.30;;;;;;;21.95;36.22;98987.29;223829;182;141494;-64
2023/05/14 13:14:35;;;;;;;3.00;1.50;;;;;;;22.02;36.17;98990.38;223796;181;137849;-64
2023/05/14 13:19:38;;;;;;;3.50;1.20;;;;;;;22.14;35.65;98990.10;223760;182;146793;-63
2023/05/14 13:24:41;;;;;;;6.50;1.30;;;;;;;22.21;35.72;98974.66;223802;181;139782;-62
2023/05/14 13:29:44;;;;;;;5.20;1.20;;;;;;;22.23;35.03;98974.80;223894;181;136677;-61
2023/05/14 13:34:47;;;;;;;72.70;64.10;;;;;;;22.16;34.29;98968.77;223845;181;147007;-63
2023/05/14 13:39:50;;;;;;;5.50;1.60;;;;;;;22.10;34.95;98965.39;223765;182;138859;-62
2023/05/14 13:44:55;;;;;;;2.60;1.10;;;;;;;22.07;35.17;98957.46;223803;181;136632;-62
2023/05/14 13:49:58;;;;;;;2.50;1.10;;;;;;;22.04;35.16;98953.77;223868;181;147078;-62
2023/05/14 13:55:01;;;;;;;2.60;1.30;;;;;;;22.01;34.67;98952.09;223704;181;138161;-62
2023/05/14 14:00:05;;;;;;;7.40;5.40;;;;;;;21.95;34.33;98935.22;223951;181;136444;-62
2023/05/14 14:05:08;;;;;;;2.80;1.50;;;;;;;21.83;34.77;98930.05;223981;181;148758;-62
2023/05/14 14:10:11;;;;;;;10.70;8.40;;;;;;;21.76;35.70;98916.28;223987;181;140108;-63
2023/05/14 14:15:14;;;;;;;3.50;1.40;;;;;;;21.69;35.67;98911.55;223745;181;137594;-62
2023/05/14 14:20:17;;;;;;;3.30;1.10;;;;;;;21.61;35.80;98903.30;223802;182;147045;-63
2023/05/14 14:25:20;;;;;;;1.50;1.20;;;;;;;21.51;35.71;98892.25;223843;181;139709;-61
2023/05/14 14:30:24;;;;;;;4.70;1.60;;;;;;;21.46;36.44;98894.66;223819;181;137584;-62
2023/05/14 14:35:27;;;;;;;4.40;3.20;;;;;;;21.40;37.10;98899.39;223811;183;146974;-59
2023/05/14 14:40:32;;;;;;;3.60;1.40;;;;;;;21.36;36.77;98891.92;223890;181;138421;-59
2023/05/14 14:45:35;;;;;;;8.50;1.30;;;;;;;21.25;37.17;98882.79;223925;181;137142;-61
2023/05/14 14:50:38;;;;;;;3.10;1.60;;;;;;;21.18;37.20;98880.10;223874;181;147705;-62
2023/05/14 14:55:41;;;;;;;1.80;1.20;;;;;;;21.12;37.39;98869.38;223838;181;138064;-62
2023/05/14 15:00:44;;;;;;;2.70;1.70;;;;;;;21.08;37.60;98857.93;223867;181;139806;-62
2023/05/14 15:05:48;;;;;;;3.10;1.40;;;;;;;21.01;37.81;98851.29;223905;181;147316;-62
2023/05/14 15:10:55;;;;;;;1.90;1.40;;;;;;;20.99;37.82;98849.13;223926;182;138053;-63
2023/05/14 15:15:59;;;;;;;2.60;1.10;;;;;;;20.98;38.49;98845.36;223905;181;136546;-63
2023/05/14 15:21:02;;;;;;;3.20;1.70;;;;;;;20.95;38.76;98837.48;223903;181;147030;-63
2023/05/14 15:26:05;;;;;;;2.10;1.20;;;;;;;20.95;39.20;98836.08;223862;181;139799;-63
2023/05/14 15:31:09;;;;;;;4.40;1.30;;;;;;;20.95;39.42;98828.92;223828;181;137077;-62
2023/05/14 15:36:12;;;;;;;1.30;1.20;;;;;;;20.94;39.62;98830.25;223836;181;147055;-63
2023/05/14 15:41:15;;;;;;;2.20;1.40;;;;;;;20.94;39.79;98829.15;223902;181;140217;-62
2023/05/14 15:46:18;;;;;;;163.90;130.20;;;;;;;20.95;39.77;98829.09;223914;181;137696;-64
2023/05/14 15:51:21;;;;;;;10.40;6.00;;;;;;;20.93;39.77;98823.48;223901;181;147610;-64
2023/05/14 15:56:24;;;;;;;7.00;2.70;;;;;;;20.90;40.08;98818.94;223879;182;138532;-64
2023/05/14 16:01:27;;;;;;;4.30;2.60;;;;;;;20.88;40.40;98810.30;223913;182;137890;-64
2023/05/14 16:06:33;;;;;;;4.80;3.00;;;;;;;20.86;40.79;98802.05;223857;181;149089;-63
2023/05/14 16:11:36;;;;;;;3.90;2.60;;;;;;;20.84;40.80;98790.39;223943;181;138454;-64
2023/05/14 16:16:39;;;;;;;2.70;1.80;;;;;;;20.81;41.05;98784.94;223948;181;136683;-64
2023/05/14 16:21:43;;;;;;;1.80;1.70;;;;;;;20.78;40.71;98776.75;223848;181;148013;-63
2023/05/14 16:26:46;;;;;;;1.60;1.30;;;;;;;20.77;40.59;98775.80;223908;181;138906;-63
2023/05/14 16:31:50;;;;;;;3.30;1.40;;;;;;;20.71;40.17;98775.61;223872;181;140019;-62
2023/05/14 16:36:53;;;;;;;2.20;1.60;;;;;;;20.66;40.55;98771.25;223852;181;146848;-63
2023/05/14 16:41:56;;;;;;;1.70;1.40;;;;;;;20.63;41.04;98766.95;223880;181;138923;-63
2023/05/14 16:46:59;;;;;;;5.10;1.70;;;;;;;20.60;40.98;98766.52;223920;182;137029;-63
2023/05/14 16:52:03;;;;;;;2.80;1.40;;;;;;;20.57;41.19;98757.45;223870;181;147047;-63
2023/05/14 16:57:06;;;;;;;2.30;1.50;;;;;;;20.53;41.02;98758.08;223826;182;138408;-63
2023/05/14 17:02:09;;;;;;;2.50;1.40;;;;;;;20.49;41.37;98756.68;223820;182;136943;-63
2023/05/14 17:07:12;;;;;;;216.50;172.90;;;;;;;20.45;41.80;98753.85;223909;182;147044;-62
2023/05/14 17:12:15;;;;;;;17.20;13.40;;;;;;;20.44;42.13;98755.59;223890;181;138469;-63
2023/05/14 17:17:18;;;;;;;6.30;4.20;;;;;;;20.43;42.09;98745.61;223908;181;137526;-62
2023/05/14 17:22:21;;;;;;;4.30;2.30;;;;;;;20.38;42.20;98740.61;223902;181;146837;-62
2023/05/14 17:27:24;;;;;;;3.70;1.90;;;;;;;20.32;42.60;98730.38;223833;181;138431;-62
2023/05/14 17:32:28;;;;;;;4.50;2.10;;;;;;;20.26;42.80;98724.87;223931;181;137025;-63
2023/05/14 17:37:31;;;;;;;3.80;1.70;;;;;;;20.19;43.48;98722.45;223834;181;147384;-63
2023/05/14 17:42:34;;;;;;;3.20;2.30;;;;;;;20.10;43.99;98716.30;223931;181;138685;-62
2023/05/14 17:47:37;;;;;;;3.30;2.20;;;;;;;20.05;44.37;98717.57;223875;181;136445;-63
2023/05/14 17:52:43;;;;;;;6.40;2.50;;;;;;;20.01;44.79;98721.07;223932;181;147218;-62
2023/05/14 17:57:46;;;;;;;3.90;2.60;;;;;;;20.01;44.83;98717.06;223806;181;139573;-65
2023/05/14 18:02:48;;;;;;;6.70;2.30;;;;;;;20.00;45.56;98709.45;223767;181;137258;-64
2023/05/14 18:07:53;;;;;;;4.30;2.40;;;;;;;19.88;47.50;98697.85;223816;181;147824;-63
2023/05/14 18:12:57;;;;;;;3.20;2.40;;;;;;;19.73;49.66;98699.98;223883;181;140195;-63
2023/05/14 18:18:00;;;;;;;5.70;2.40;;;;;;;19.53;50.87;98725.87;223944;181;136581;-64
2023/05/14 18:23:03;;;;;;;4.00;2.50;;;;;;;19.42;52.21;98741.32;223942;182;147687;-65
2023/05/14 18:28:08;;;;;;;17.10;12.10;;;;;;;19.28;53.14;98750.30;223762;181;150545;-63
2023/05/14 18:33:11;;;;;;;29.50;23.70;;;;;;;19.23;53.00;98761.25;223805;182;137294;-61
2023/05/14 18:38:16;;;;;;;9.90;6.00;;;;;;;19.25;52.91;98768.01;223852;181;147792;-63
2023/05/14 18:43:19;;;;;;;32.50;25.70;;;;;;;19.24;53.19;98772.33;223669;181;138918;-63
2023/05/14 18:48:22;;;;;;;14.10;11.30;;;;;;;19.19;53.60;98770.77;223942;181;137600;-64
2023/05/14 18:53:26;;;;;;;11.30;9.60;;;;;;;19.04;54.23;98761.17;223949;181;147027;-63
2023/05/14 18:58:29;;;;;;;10.70;8.70;;;;;;;18.85;54.64;98755.95;223798;181;138522;-62
2023/05/14 19:03:32;;;;;;;26.30;23.50;;;;;;;18.67;55.45;98749.06;223863;182;139874;-64
2023/05/14 19:08:35;;;;;;;166.70;141.10;;;;;;;18.55;55.86;98740.42;223897;181;146984;-63
2023/05/14 19:13:38;;;;;;;32.10;27.40;;;;;;;18.56;56.26;98753.21;223865;181;139605;-63
2023/05/14 19:18:42;;;;;;;21.10;16.40;;;;;;;18.59;55.85;98757.63;223875;181;137273;-62
2023/05/14 19:23:45;;;;;;;11.80;8.30;;;;;;;18.60;56.21;98757.27;223771;181;147511;-61
2023/05/14 19:28:48;;;;;;;6.70;2.90;;;;;;;18.48;57.22;98764.81;223847;181;138029;-60
2023/05/14 19:33:52;;;;;;;4.60;2.80;;;;;;;18.16;58.65;98773.67;223891;181;137723;-61
2023/05/14 19:38:55;;;;;;;3.60;2.90;;;;;;;17.89;59.89;98780.98;223885;181;147039;-61
2023/05/14 19:43:58;;;;;;;4.70;2.70;;;;;;;17.68;59.62;98785.45;223788;181;139643;-60
2023/05/14 19:49:01;;;;;;;5.20;2.70;;;;;;;17.63;59.23;98785.02;223870;181;137075;-61
2023/05/14 19:54:04;;;;;;;191.80;151.90;;;;;;;17.62;59.13;98784.24;223934;181;147106;-61
2023/05/14 19:59:07;;;;;;;8.40;5.30;;;;;;;17.63;58.45;98781.33;223840;182;138722;-63
2023/05/14 20:04:12;;;;;;;8.10;3.60;;;;;;;17.55;58.85;98786.53;223871;181;137606;-64
2023/05/14 20:09:16;;;;;;;5.40;3.70;;;;;;;17.44;59.52;98785.28;223867;181;147127;-65
2023/05/14 20:14:19;;;;;;;6.40;3.80;;;;;;;17.28;60.65;98778.86;223801;181;138336;-63
2023/05/14 20:19:22;;;;;;;5.80;3.30;;;;;;;17.17;61.92;98769.84;223813;181;141053;-63
2023/05/14 20:24:25;;;;;;;8.20;3.70;;;;;;;17.09;62.00;98768.14;223876;181;147755;-64
2023/05/14 20:29:28;;;;;;;5.60;3.60;;;;;;;17.07;62.96;98758.30;223804;181;138413;-64
2023/05/14 20:34:31;;;;;;;4.70;3.10;;;;;;;17.00;63.42;98747.05;223792;181;136928;-64
2023/05/14 20:39:34;;;;;;;5.20;3.20;;;;;;;16.81;63.37;98738.08;223749;182;146893;-64
2023/05/14 20:44:37;;;;;;;6.10;3.30;;;;;;;16.81;63.57;98724.71;223779;181;139188;-65
2023/05/14 20:49:40;;;;;;;4.00;2.80;;;;;;;16.74;64.10;98706.62;223894;181;137179;-64
2023/05/14 20:54:43;;;;;;;5.00;2.90;;;;;;;16.61;64.45;98693.34;223804;182;147081;-62
2023/05/14 20:59:47;;;;;;;4.10;2.70;;;;;;;16.53;64.76;98687.39;223894;181;140217;-62
2023/05/14 21:04:51;;;;;;;9.00;3.80;;;;;;;16.41;64.91;98679.03;223736;181;136882;-63
2023/05/14 21:09:54;;;;;;;6.20;3.30;;;;;;;16.27;64.65;98661.15;222262;181;146881;-65
2023/05/14 21:14:57;;;;;;;4.80;2.70;;;;;;;16.18;64.56;98648.01;223806;181;139722;-63
2023/05/14 21:20:01;;;;;;;3.00;2.00;;;;;;;16.09;64.72;98629.13;223900;182;137711;-63
2023/05/14 21:25:04;;;;;;;3.20;2.00;;;;;;;16.04;64.83;98611.55;223941;182;147071;-63
2023/05/14 21:30:08;;;;;;;4.00;2.10;;;;;;;16.03;64.67;98599.88;223897;182;139284;-63
2023/05/14 21:35:11;;;;;;;3.30;2.00;;;;;;;16.04;64.47;98598.89;223492;182;136964;-62
2023/05/14 21:40:15;;;;;;;3.80;1.90;;;;;;;15.99;64.20;98601.80;221344;182;147680;-64
2023/05/14 21:45:19;;;;;;;3.20;1.70;;;;;;;15.96;64.07;98589.57;222458;181;140281;-65
2023/05/14 21:50:25;;;;;;;2.40;1.80;;;;;;;15.93;63.60;98576.09;223896;181;137526;-62
2023/05/14 21:55:29;;;;;;;2.20;1.50;;;;;;;15.89;63.50;98578.24;223832;182;147851;-62
2023/05/14 22:00:32;;;;;;;4.60;1.50;;;;;;;15.82;63.68;98568.08;223891;181;138346;-62
2023/05/14 22:05:35;;;;;;;1.80;1.60;;;;;;;15.77;63.59;98564.83;223801;181;136524;-63
2023/05/14 22:10:38;;;;;;;2.40;1.60;;;;;;;15.70;63.77;98567.22;223864;181;147546;-64
2023/05/14 22:15:41;;;;;;;2.80;1.60;;;;;;;15.68;63.89;98568.66;223794;181;139319;-64
2023/05/14 22:20:44;;;;;;;2.90;1.60;;;;;;;15.67;63.88;98553.58;223869;181;137033;-65
2023/05/14 22:25:47;;;;;;;2.10;1.40;;;;;;;15.64;64.07;98540.38;223732;181;147374;-64
2023/05/14 22:30:50;;;;;;;3.10;1.30;;;;;;;15.62;63.93;98521.80;223861;181;140773;-62
2023/05/14 22:35:53;;;;;;;1.70;1.30;;;;;;;15.67;63.82;98511.41;223952;181;136775;-62
2023/05/14 22:40:56;;;;;;;2.40;1.50;;;;;;;15.72;63.52;98506.80;223836;182;148119;-62
2023/05/14 22:45:59;;;;;;;4.00;1.40;;;;;;;15.75;63.34;98512.64;223915;181;138398;-63
2023/05/14 22:51:02;;;;;;;3.00;1.50;;;;;;;15.76;63.26;98527.58;224030;181;136593;-63
2023/05/14 22:56:06;;;;;;;2.90;1.80;;;;;;;15.78;63.28;98528.28;223907;181;147232;-63
2023/05/14 23:01:08;;;;;;;1.90;1.70;;;;;;;15.81;63.54;98518.52;221994;181;138395;-62
2023/05/14 23:06:13;;;;;;;3.60;2.10;;;;;;;15.85;63.23;98513.85;221495;181;137724;-65
2023/05/14 23:11:16;;;;;;;2.70;1.90;;;;;;;15.77;63.67;98509.88;223846;181;147196;-63
2023/05/14 23:16:19;;;;;;;3.30;2.00;;;;;;;15.69;64.08;98509.98;223880;181;138495;-64
2023/05/14 23:21:22;;;;;;;3.10;1.90;;;;;;;15.63;64.76;98510.96;223917;181;137489;-64
2023/05/14 23:26:25;;;;;;;2.70;2.00;;;;;;;15.67;65.18;98510.63;223884;182;147267;-65